sensor_id;sensor_type;location;lat;lon;timestamp;P1;durP1;ratioP1;P2;durP2;ratioP2
10088;SDS011;51898;49.864;8.550;2022-08-19T00:02:11;21.80;;;19.43;;
10088;SDS011;51898;49.864;8.550;2022-08-19T00:05:13;21.40;;;19.00;;
10088;SDS011;51898;49.864;8.550;2022-08-19T00:08:16;24.10;;;20.17;;
10088;SDS011;51898;49.864;8.550;2022-08-19T00:11:18;23.13;;;19.60;;
10088;SDS011;51898;49.864;8.550;2022-08-19T00:14:26;23.17;;;20.50;;
10088;SDS011;51898;49.864;8.550;2022-08-19T00:17:28;21.03;;;18.30;;
10088;SDS011;51898;49.864;8.550;2022-08-19T00:20:30;20.37;;;18.17;;
10088;SDS011;51898;49.864;8.550;2022-08-19T00:23:32;21.30;;;18.77;;
10088;SDS011;51898;49.864;8.550;2022-08-19T00:26:36;23.33;;;20.13;;
10088;SDS011;51898;49.864;8.550;2022-08-19T00:29:39;21.70;;;19.30;;
10088;SDS011;51898;49.864;8.550;2022-08-19T00:32:41;24.60;;;21.13;;
10088;SDS011;51898;49.864;8.550;2022-08-19T00:35:42;25.27;;;20.03;;
10088;SDS011;51898;49.864;8.550;2022-08-19T00:38:44;21.93;;;19.47;;
10088;SDS011;51898;49.864;8.550;2022-08-19T00:41:47;23.80;;;19.13;;
10088;SDS011;51898;49.864;8.550;2022-08-19T00:44:50;22.43;;;18.77;;
10088;SDS011;51898;49.864;8.550;2022-08-19T00:47:52;24.60;;;19.83;;
10088;SDS011;51898;49.864;8.550;2022-08-19T00:50:54;22.37;;;18.57;;
10088;SDS011;51898;49.864;8.550;2022-08-19T00:53:56;23.17;;;18.90;;
10088;SDS011;51898;49.864;8.550;2022-08-19T00:56:59;25.10;;;20.37;;
10088;SDS011;51898;49.864;8.550;2022-08-19T01:00:09;23.53;;;18.53;;
10088;SDS011;51898;49.864;8.550;2022-08-19T01:03:15;22.47;;;18.73;;
10088;SDS011;51898;49.864;8.550;2022-08-19T01:06:19;22.90;;;18.97;;
10088;SDS011;51898;49.864;8.550;2022-08-19T01:09:22;23.13;;;19.10;;
10088;SDS011;51898;49.864;8.550;2022-08-19T01:12:23;21.93;;;19.10;;
10088;SDS011;51898;49.864;8.550;2022-08-19T01:15:27;22.20;;;18.90;;
10088;SDS011;51898;49.864;8.550;2022-08-19T01:18:35;23.63;;;17.37;;
10088;SDS011;51898;49.864;8.550;2022-08-19T01:21:41;22.67;;;17.23;;
10088;SDS011;51898;49.864;8.550;2022-08-19T01:24:46;21.60;;;17.90;;
10088;SDS011;51898;49.864;8.550;2022-08-19T01:27:50;20.43;;;17.50;;
10088;SDS011;51898;49.864;8.550;2022-08-19T01:30:54;20.77;;;17.20;;
10088;SDS011;51898;49.864;8.550;2022-08-19T01:33:57;20.20;;;17.53;;
10088;SDS011;51898;49.864;8.550;2022-08-19T01:36:59;23.43;;;19.00;;
10088;SDS011;51898;49.864;8.550;2022-08-19T01:40:08;24.20;;;18.40;;
10088;SDS011;51898;49.864;8.550;2022-08-19T01:43:10;23.80;;;18.67;;
10088;SDS011;51898;49.864;8.550;2022-08-19T01:46:12;22.77;;;18.67;;
10088;SDS011;51898;49.864;8.550;2022-08-19T01:49:14;25.13;;;19.10;;
10088;SDS011;51898;49.864;8.550;2022-08-19T01:52:18;20.37;;;17.00;;
10088;SDS011;51898;49.864;8.550;2022-08-19T01:55:21;24.33;;;18.30;;
10088;SDS011;51898;49.864;8.550;2022-08-19T01:58:27;22.57;;;18.13;;
10088;SDS011;51898;49.864;8.550;2022-08-19T02:01:37;22.73;;;18.60;;
10088;SDS011;51898;49.864;8.550;2022-08-19T02:04:38;26.37;;;18.20;;
10088;SDS011;51898;49.864;8.550;2022-08-19T02:07:40;23.30;;;18.17;;
10088;SDS011;51898;49.864;8.550;2022-08-19T02:10:42;19.87;;;17.00;;
10088;SDS011;51898;49.864;8.550;2022-08-19T02:13:44;24.03;;;19.60;;
10088;SDS011;51898;49.864;8.550;2022-08-19T02:16:46;22.40;;;18.60;;
10088;SDS011;51898;49.864;8.550;2022-08-19T02:19:48;20.83;;;17.57;;
10088;SDS011;51898;49.864;8.550;2022-08-19T02:22:50;23.47;;;17.90;;
10088;SDS011;51898;49.864;8.550;2022-08-19T02:25:52;20.70;;;17.70;;
10088;SDS011;51898;49.864;8.550;2022-08-19T02:28:55;18.20;;;16.30;;
10088;SDS011;51898;49.864;8.550;2022-08-19T02:31:57;20.70;;;17.77;;
10088;SDS011;51898;49.864;8.550;2022-08-19T02:34:59;19.47;;;16.10;;
10088;SDS011;51898;49.864;8.550;2022-08-19T02:38:01;23.20;;;17.20;;
10088;SDS011;51898;49.864;8.550;2022-08-19T02:41:25;21.20;;;17.67;;
10088;SDS011;51898;49.864;8.550;2022-08-19T02:44:29;20.70;;;17.53;;
10088;SDS011;51898;49.864;8.550;2022-08-19T02:47:32;20.20;;;17.70;;
10088;SDS011;51898;49.864;8.550;2022-08-19T02:50:38;20.63;;;17.70;;
10088;SDS011;51898;49.864;8.550;2022-08-19T02:53:53;24.53;;;18.37;;
10088;SDS011;51898;49.864;8.550;2022-08-19T02:56:55;21.87;;;18.53;;
10088;SDS011;51898;49.864;8.550;2022-08-19T02:59:56;22.37;;;18.40;;
10088;SDS011;51898;49.864;8.550;2022-08-19T03:02:58;21.30;;;18.53;;
10088;SDS011;51898;49.864;8.550;2022-08-19T03:06:06;23.87;;;18.43;;
10088;SDS011;51898;49.864;8.550;2022-08-19T03:09:14;26.53;;;20.63;;
10088;SDS011;51898;49.864;8.550;2022-08-19T03:12:16;23.47;;;19.00;;
10088;SDS011;51898;49.864;8.550;2022-08-19T03:15:17;24.40;;;20.20;;
10088;SDS011;51898;49.864;8.550;2022-08-19T03:18:19;26.10;;;20.63;;
10088;SDS011;51898;49.864;8.550;2022-08-19T03:21:24;27.10;;;20.63;;
10088;SDS011;51898;49.864;8.550;2022-08-19T03:24:26;24.40;;;19.93;;
10088;SDS011;51898;49.864;8.550;2022-08-19T03:27:28;23.97;;;20.60;;
10088;SDS011;51898;49.864;8.550;2022-08-19T03:30:34;29.17;;;20.30;;
10088;SDS011;51898;49.864;8.550;2022-08-19T03:33:36;27.10;;;19.90;;
10088;SDS011;51898;49.864;8.550;2022-08-19T03:36:38;29.10;;;20.20;;
10088;SDS011;51898;49.864;8.550;2022-08-19T03:39:41;27.70;;;20.00;;
10088;SDS011;51898;49.864;8.550;2022-08-19T03:42:43;26.33;;;20.80;;
10088;SDS011;51898;49.864;8.550;2022-08-19T03:45:59;27.37;;;20.30;;
10088;SDS011;51898;49.864;8.550;2022-08-19T03:49:03;24.27;;;20.17;;
10088;SDS011;51898;49.864;8.550;2022-08-19T03:52:08;28.97;;;21.43;;
10088;SDS011;51898;49.864;8.550;2022-08-19T03:55:09;29.67;;;21.37;;
10088;SDS011;51898;49.864;8.550;2022-08-19T03:58:11;24.20;;;20.13;;
10088;SDS011;51898;49.864;8.550;2022-08-19T04:01:14;28.40;;;21.63;;
10088;SDS011;51898;49.864;8.550;2022-08-19T04:04:18;25.90;;;21.00;;
10088;SDS011;51898;49.864;8.550;2022-08-19T04:07:20;24.10;;;20.43;;
10088;SDS011;51898;49.864;8.550;2022-08-19T04:10:22;26.90;;;21.00;;
10088;SDS011;51898;49.864;8.550;2022-08-19T04:13:24;26.77;;;21.40;;
10088;SDS011;51898;49.864;8.550;2022-08-19T04:16:26;24.83;;;21.10;;
10088;SDS011;51898;49.864;8.550;2022-08-19T04:19:35;24.97;;;19.97;;
10088;SDS011;51898;49.864;8.550;2022-08-19T04:22:37;24.40;;;19.67;;
10088;SDS011;51898;49.864;8.550;2022-08-19T04:25:40;26.40;;;18.70;;
10088;SDS011;51898;49.864;8.550;2022-08-19T04:28:43;24.90;;;20.30;;
10088;SDS011;51898;49.864;8.550;2022-08-19T04:31:45;22.30;;;18.40;;
10088;SDS011;51898;49.864;8.550;2022-08-19T04:34:47;21.30;;;18.30;;
10088;SDS011;51898;49.864;8.550;2022-08-19T04:38:09;23.10;;;20.00;;
10088;SDS011;51898;49.864;8.550;2022-08-19T04:41:12;27.10;;;19.90;;
10088;SDS011;51898;49.864;8.550;2022-08-19T04:44:32;24.20;;;20.00;;
10088;SDS011;51898;49.864;8.550;2022-08-19T04:47:36;25.60;;;19.00;;
10088;SDS011;51898;49.864;8.550;2022-08-19T04:50:58;25.33;;;20.17;;
10088;SDS011;51898;49.864;8.550;2022-08-19T04:54:00;22.37;;;18.60;;
10088;SDS011;51898;49.864;8.550;2022-08-19T04:57:02;24.10;;;19.30;;
10088;SDS011;51898;49.864;8.550;2022-08-19T05:00:09;22.93;;;19.50;;
10088;SDS011;51898;49.864;8.550;2022-08-19T05:03:11;21.80;;;18.23;;
10088;SDS011;51898;49.864;8.550;2022-08-19T05:06:15;24.20;;;19.50;;
10088;SDS011;51898;49.864;8.550;2022-08-19T05:09:19;25.70;;;19.07;;
10088;SDS011;51898;49.864;8.550;2022-08-19T05:12:22;25.87;;;18.50;;
10088;SDS011;51898;49.864;8.550;2022-08-19T05:15:30;22.67;;;17.93;;
10088;SDS011;51898;49.864;8.550;2022-08-19T05:18:32;19.50;;;17.30;;
10088;SDS011;51898;49.864;8.550;2022-08-19T05:21:52;21.73;;;17.93;;
10088;SDS011;51898;49.864;8.550;2022-08-19T05:25:15;23.27;;;18.47;;
10088;SDS011;51898;49.864;8.550;2022-08-19T05:28:20;28.00;;;19.00;;
10088;SDS011;51898;49.864;8.550;2022-08-19T05:31:22;36.93;;;20.00;;
10088;SDS011;51898;49.864;8.550;2022-08-19T05:34:24;22.40;;;18.30;;
10088;SDS011;51898;49.864;8.550;2022-08-19T05:37:27;26.30;;;18.30;;
10088;SDS011;51898;49.864;8.550;2022-08-19T05:40:28;18.97;;;15.40;;
10088;SDS011;51898;49.864;8.550;2022-08-19T05:43:30;17.83;;;15.93;;
10088;SDS011;51898;49.864;8.550;2022-08-19T05:46:32;24.10;;;17.10;;
10088;SDS011;51898;49.864;8.550;2022-08-19T05:49:34;23.53;;;16.70;;
10088;SDS011;51898;49.864;8.550;2022-08-19T05:52:37;24.20;;;17.67;;
10088;SDS011;51898;49.864;8.550;2022-08-19T05:55:50;19.60;;;17.10;;
10088;SDS011;51898;49.864;8.550;2022-08-19T05:58:52;19.33;;;17.23;;
10088;SDS011;51898;49.864;8.550;2022-08-19T06:01:55;18.40;;;16.23;;
10088;SDS011;51898;49.864;8.550;2022-08-19T06:04:58;19.00;;;16.97;;
10088;SDS011;51898;49.864;8.550;2022-08-19T06:07:59;20.77;;;17.70;;
10088;SDS011;51898;49.864;8.550;2022-08-19T06:14:19;22.53;;;18.20;;
10088;SDS011;51898;49.864;8.550;2022-08-19T06:17:28;23.17;;;16.90;;
10088;SDS011;51898;49.864;8.550;2022-08-19T06:20:32;21.57;;;16.40;;
10088;SDS011;51898;49.864;8.550;2022-08-19T06:23:54;19.30;;;15.83;;
10088;SDS011;51898;49.864;8.550;2022-08-19T06:26:57;18.27;;;16.37;;
10088;SDS011;51898;49.864;8.550;2022-08-19T06:30:03;17.17;;;15.47;;
10088;SDS011;51898;49.864;8.550;2022-08-19T06:33:05;19.27;;;14.30;;
10088;SDS011;51898;49.864;8.550;2022-08-19T06:36:07;17.13;;;14.30;;
10088;SDS011;51898;49.864;8.550;2022-08-19T06:39:24;18.20;;;15.47;;
10088;SDS011;51898;49.864;8.550;2022-08-19T06:42:27;16.20;;;13.70;;
10088;SDS011;51898;49.864;8.550;2022-08-19T06:45:28;16.87;;;13.00;;
10088;SDS011;51898;49.864;8.550;2022-08-19T06:48:36;19.40;;;15.37;;
10088;SDS011;51898;49.864;8.550;2022-08-19T06:51:46;15.43;;;13.53;;
10088;SDS011;51898;49.864;8.550;2022-08-19T06:54:49;16.23;;;14.30;;
10088;SDS011;51898;49.864;8.550;2022-08-19T06:57:56;20.00;;;14.30;;
10088;SDS011;51898;49.864;8.550;2022-08-19T07:00:59;24.73;;;14.23;;
10088;SDS011;51898;49.864;8.550;2022-08-19T07:04:09;16.00;;;14.20;;
10088;SDS011;51898;49.864;8.550;2022-08-19T07:07:14;14.63;;;13.13;;
10088;SDS011;51898;49.864;8.550;2022-08-19T07:10:21;18.53;;;14.53;;
10088;SDS011;51898;49.864;8.550;2022-08-19T07:13:26;15.97;;;14.27;;
10088;SDS011;51898;49.864;8.550;2022-08-19T07:16:27;14.80;;;13.20;;
10088;SDS011;51898;49.864;8.550;2022-08-19T07:19:30;14.97;;;13.37;;
10088;SDS011;51898;49.864;8.550;2022-08-19T07:22:33;13.93;;;12.63;;
10088;SDS011;51898;49.864;8.550;2022-08-19T07:25:36;18.50;;;13.63;;
10088;SDS011;51898;49.864;8.550;2022-08-19T07:28:41;17.13;;;13.57;;
10088;SDS011;51898;49.864;8.550;2022-08-19T07:31:53;21.40;;;15.43;;
10088;SDS011;51898;49.864;8.550;2022-08-19T07:35:00;20.33;;;13.90;;
10088;SDS011;51898;49.864;8.550;2022-08-19T07:38:04;12.33;;;11.03;;
10088;SDS011;51898;49.864;8.550;2022-08-19T07:41:06;15.60;;;11.03;;
10088;SDS011;51898;49.864;8.550;2022-08-19T07:44:10;14.53;;;10.53;;
10088;SDS011;51898;49.864;8.550;2022-08-19T07:47:13;17.27;;;12.93;;
10088;SDS011;51898;49.864;8.550;2022-08-19T07:50:36;9.67;;;8.70;;
10088;SDS011;51898;49.864;8.550;2022-08-19T07:53:38;10.30;;;9.30;;
10088;SDS011;51898;49.864;8.550;2022-08-19T07:56:40;10.60;;;9.50;;
10088;SDS011;51898;49.864;8.550;2022-08-19T07:59:42;16.80;;;9.00;;
10088;SDS011;51898;49.864;8.550;2022-08-19T08:02:44;10.83;;;9.47;;
10088;SDS011;51898;49.864;8.550;2022-08-19T08:05:46;9.53;;;8.43;;
10088;SDS011;51898;49.864;8.550;2022-08-19T08:09:06;11.70;;;9.43;;
10088;SDS011;51898;49.864;8.550;2022-08-19T08:12:19;10.90;;;8.60;;
10088;SDS011;51898;49.864;8.550;2022-08-19T08:15:35;11.47;;;9.33;;
10088;SDS011;51898;49.864;8.550;2022-08-19T08:18:42;10.30;;;9.30;;
10088;SDS011;51898;49.864;8.550;2022-08-19T08:21:57;9.17;;;8.37;;
10088;SDS011;51898;49.864;8.550;2022-08-19T08:25:00;9.23;;;8.43;;
10088;SDS011;51898;49.864;8.550;2022-08-19T08:28:07;10.03;;;8.70;;
10088;SDS011;51898;49.864;8.550;2022-08-19T08:31:17;11.07;;;8.90;;
10088;SDS011;51898;49.864;8.550;2022-08-19T08:34:22;9.27;;;8.33;;
10088;SDS011;51898;49.864;8.550;2022-08-19T08:37:24;9.80;;;8.90;;
10088;SDS011;51898;49.864;8.550;2022-08-19T08:43:34;9.47;;;8.20;;
10088;SDS011;51898;49.864;8.550;2022-08-19T08:46:40;10.20;;;7.73;;
10088;SDS011;51898;49.864;8.550;2022-08-19T08:49:53;8.00;;;7.30;;
10088;SDS011;51898;49.864;8.550;2022-08-19T08:53:01;8.47;;;7.43;;
10088;SDS011;51898;49.864;8.550;2022-08-19T08:56:06;7.90;;;7.20;;
10088;SDS011;51898;49.864;8.550;2022-08-19T08:59:21;9.23;;;8.43;;
10088;SDS011;51898;49.864;8.550;2022-08-19T09:02:24;7.93;;;7.23;;
10088;SDS011;51898;49.864;8.550;2022-08-19T09:05:34;8.53;;;7.67;;
10088;SDS011;51898;49.864;8.550;2022-08-19T09:09:02;8.63;;;7.93;;
10088;SDS011;51898;49.864;8.550;2022-08-19T09:15:32;8.20;;;7.47;;
10088;SDS011;51898;49.864;8.550;2022-08-19T09:18:46;9.00;;;8.30;;
10088;SDS011;51898;49.864;8.550;2022-08-19T09:21:50;9.20;;;8.23;;
10088;SDS011;51898;49.864;8.550;2022-08-19T09:24:52;10.20;;;9.30;;
10088;SDS011;51898;49.864;8.550;2022-08-19T09:27:54;8.60;;;7.90;;
10088;SDS011;51898;49.864;8.550;2022-08-19T09:31:02;8.30;;;7.70;;
10088;SDS011;51898;49.864;8.550;2022-08-19T09:34:04;9.43;;;8.70;;
10088;SDS011;51898;49.864;8.550;2022-08-19T09:37:06;12.67;;;9.13;;
10088;SDS011;51898;49.864;8.550;2022-08-19T09:40:08;10.83;;;9.83;;
10088;SDS011;51898;49.864;8.550;2022-08-19T09:43:12;11.37;;;10.20;;
10088;SDS011;51898;49.864;8.550;2022-08-19T09:46:13;12.13;;;10.80;;
10088;SDS011;51898;49.864;8.550;2022-08-19T09:49:18;10.47;;;9.50;;
10088;SDS011;51898;49.864;8.550;2022-08-19T09:52:24;13.17;;;10.87;;
10088;SDS011;51898;49.864;8.550;2022-08-19T09:55:32;12.00;;;11.00;;
10088;SDS011;51898;49.864;8.550;2022-08-19T09:58:34;13.07;;;11.67;;
10088;SDS011;51898;49.864;8.550;2022-08-19T10:01:37;15.93;;;12.00;;
10088;SDS011;51898;49.864;8.550;2022-08-19T10:04:39;15.33;;;11.73;;
10088;SDS011;51898;49.864;8.550;2022-08-19T10:08:01;12.73;;;11.63;;
10088;SDS011;51898;49.864;8.550;2022-08-19T10:11:05;13.30;;;12.03;;
10088;SDS011;51898;49.864;8.550;2022-08-19T10:14:27;13.17;;;12.07;;
10088;SDS011;51898;49.864;8.550;2022-08-19T10:17:29;13.67;;;12.30;;
10088;SDS011;51898;49.864;8.550;2022-08-19T10:20:33;13.70;;;12.10;;
10088;SDS011;51898;49.864;8.550;2022-08-19T10:23:38;14.23;;;13.03;;
10088;SDS011;51898;49.864;8.550;2022-08-19T10:26:44;14.70;;;13.23;;
10088;SDS011;51898;49.864;8.550;2022-08-19T10:29:57;13.47;;;12.27;;
10088;SDS011;51898;49.864;8.550;2022-08-19T10:32:59;16.70;;;15.10;;
10088;SDS011;51898;49.864;8.550;2022-08-19T10:36:02;14.37;;;13.17;;
10088;SDS011;51898;49.864;8.550;2022-08-19T10:39:09;14.90;;;13.50;;
10088;SDS011;51898;49.864;8.550;2022-08-19T10:42:12;15.90;;;14.17;;
10088;SDS011;51898;49.864;8.550;2022-08-19T10:45:14;16.17;;;14.43;;
10088;SDS011;51898;49.864;8.550;2022-08-19T10:48:16;16.10;;;14.77;;
10088;SDS011;51898;49.864;8.550;2022-08-19T10:51:20;11.67;;;10.47;;
10088;SDS011;51898;49.864;8.550;2022-08-19T10:54:48;12.10;;;11.10;;
10088;SDS011;51898;49.864;8.550;2022-08-19T10:58:13;16.67;;;15.13;;
10088;SDS011;51898;49.864;8.550;2022-08-19T11:01:17;16.50;;;15.07;;
10088;SDS011;51898;49.864;8.550;2022-08-19T11:04:19;17.63;;;16.03;;
10088;SDS011;51898;49.864;8.550;2022-08-19T11:07:29;19.53;;;17.90;;
10088;SDS011;51898;49.864;8.550;2022-08-19T11:10:30;18.43;;;16.83;;
10088;SDS011;51898;49.864;8.550;2022-08-19T11:13:36;17.50;;;16.10;;
10088;SDS011;51898;49.864;8.550;2022-08-19T11:16:41;16.00;;;14.60;;
10088;SDS011;51898;49.864;8.550;2022-08-19T11:19:43;16.20;;;14.60;;
10088;SDS011;51898;49.864;8.550;2022-08-19T11:22:46;17.00;;;15.50;;
10088;SDS011;51898;49.864;8.550;2022-08-19T11:25:49;14.37;;;13.17;;
10088;SDS011;51898;49.864;8.550;2022-08-19T11:28:50;15.53;;;14.17;;
10088;SDS011;51898;49.864;8.550;2022-08-19T11:31:55;12.80;;;11.70;;
10088;SDS011;51898;49.864;8.550;2022-08-19T11:34:57;13.23;;;12.13;;
10088;SDS011;51898;49.864;8.550;2022-08-19T11:37:58;14.20;;;12.90;;
10088;SDS011;51898;49.864;8.550;2022-08-19T11:41:02;15.70;;;13.33;;
10088;SDS011;51898;49.864;8.550;2022-08-19T11:44:06;14.00;;;12.57;;
10088;SDS011;51898;49.864;8.550;2022-08-19T11:47:11;16.10;;;14.57;;
10088;SDS011;51898;49.864;8.550;2022-08-19T11:50:13;16.43;;;15.00;;
10088;SDS011;51898;49.864;8.550;2022-08-19T11:53:19;15.73;;;14.40;;
10088;SDS011;51898;49.864;8.550;2022-08-19T11:56:22;15.03;;;13.63;;
10088;SDS011;51898;49.864;8.550;2022-08-19T11:59:25;15.43;;;14.03;;
10088;SDS011;51898;49.864;8.550;2022-08-19T12:02:27;15.10;;;13.13;;
10088;SDS011;51898;49.864;8.550;2022-08-19T12:05:29;15.20;;;13.90;;
10088;SDS011;51898;49.864;8.550;2022-08-19T12:08:35;15.00;;;13.70;;
10088;SDS011;51898;49.864;8.550;2022-08-19T12:11:37;14.83;;;13.43;;
10088;SDS011;51898;49.864;8.550;2022-08-19T12:14:39;14.17;;;12.93;;
10088;SDS011;51898;49.864;8.550;2022-08-19T12:17:41;14.43;;;13.20;;
10088;SDS011;51898;49.864;8.550;2022-08-19T12:20:43;14.50;;;13.30;;
10088;SDS011;51898;49.864;8.550;2022-08-19T12:23:47;14.03;;;12.73;;
10088;SDS011;51898;49.864;8.550;2022-08-19T12:26:55;14.57;;;13.27;;
10088;SDS011;51898;49.864;8.550;2022-08-19T12:30:03;16.07;;;10.80;;
10088;SDS011;51898;49.864;8.550;2022-08-19T12:33:06;13.53;;;11.03;;
10088;SDS011;51898;49.864;8.550;2022-08-19T12:36:09;11.93;;;10.93;;
10088;SDS011;51898;49.864;8.550;2022-08-19T12:39:13;10.17;;;9.27;;
10088;SDS011;51898;49.864;8.550;2022-08-19T12:42:15;11.07;;;10.00;;
10088;SDS011;51898;49.864;8.550;2022-08-19T12:45:18;10.43;;;9.67;;
10088;SDS011;51898;49.864;8.550;2022-08-19T12:48:21;11.13;;;9.13;;
10088;SDS011;51898;49.864;8.550;2022-08-19T12:51:35;10.57;;;9.77;;
10088;SDS011;51898;49.864;8.550;2022-08-19T12:54:40;10.50;;;9.80;;
10088;SDS011;51898;49.864;8.550;2022-08-19T12:57:41;9.27;;;8.57;;
10088;SDS011;51898;49.864;8.550;2022-08-19T13:00:43;10.30;;;9.40;;
10088;SDS011;51898;49.864;8.550;2022-08-19T13:03:46;10.77;;;10.07;;
10088;SDS011;51898;49.864;8.550;2022-08-19T13:06:47;10.10;;;9.30;;
10088;SDS011;51898;49.864;8.550;2022-08-19T13:09:51;9.30;;;8.50;;
10088;SDS011;51898;49.864;8.550;2022-08-19T13:12:53;9.30;;;8.63;;
10088;SDS011;51898;49.864;8.550;2022-08-19T13:16:01;9.10;;;8.50;;
10088;SDS011;51898;49.864;8.550;2022-08-19T13:19:05;9.07;;;8.37;;
10088;SDS011;51898;49.864;8.550;2022-08-19T13:22:06;9.03;;;8.37;;
10088;SDS011;51898;49.864;8.550;2022-08-19T13:25:15;9.50;;;8.70;;
10088;SDS011;51898;49.864;8.550;2022-08-19T13:28:21;9.93;;;8.23;;
10088;SDS011;51898;49.864;8.550;2022-08-19T13:31:30;9.33;;;8.50;;
10088;SDS011;51898;49.864;8.550;2022-08-19T13:34:53;8.40;;;7.80;;
10088;SDS011;51898;49.864;8.550;2022-08-19T13:37:57;8.20;;;7.60;;
10088;SDS011;51898;49.864;8.550;2022-08-19T13:41:03;8.60;;;8.00;;
10088;SDS011;51898;49.864;8.550;2022-08-19T13:44:12;7.97;;;7.17;;
10088;SDS011;51898;49.864;8.550;2022-08-19T13:47:13;7.90;;;7.30;;
10088;SDS011;51898;49.864;8.550;2022-08-19T13:50:17;8.10;;;7.60;;
10088;SDS011;51898;49.864;8.550;2022-08-19T13:53:21;8.00;;;7.50;;
10088;SDS011;51898;49.864;8.550;2022-08-19T13:56:23;8.27;;;7.77;;
10088;SDS011;51898;49.864;8.550;2022-08-19T13:59:26;8.20;;;7.60;;
10088;SDS011;51898;49.864;8.550;2022-08-19T14:02:28;7.93;;;7.27;;
10088;SDS011;51898;49.864;8.550;2022-08-19T14:05:30;7.20;;;6.70;;
10088;SDS011;51898;49.864;8.550;2022-08-19T14:08:32;7.47;;;6.95;;
10088;SDS011;51898;49.864;8.550;2022-08-19T14:11:34;8.27;;;7.38;;
10088;SDS011;51898;49.864;8.550;2022-08-19T14:14:37;7.32;;;6.82;;
10088;SDS011;51898;49.864;8.550;2022-08-19T14:17:43;7.60;;;6.80;;
10088;SDS011;51898;49.864;8.550;2022-08-19T14:20:47;7.50;;;7.00;;
10088;SDS011;51898;49.864;8.550;2022-08-19T14:23:49;8.20;;;7.57;;
10088;SDS011;51898;49.864;8.550;2022-08-19T14:26:51;7.93;;;7.18;;
10088;SDS011;51898;49.864;8.550;2022-08-19T14:29:56;8.07;;;7.43;;
10088;SDS011;51898;49.864;8.550;2022-08-19T14:32:59;8.60;;;7.85;;
10088;SDS011;51898;49.864;8.550;2022-08-19T14:36:02;8.30;;;7.50;;
10088;SDS011;51898;49.864;8.550;2022-08-19T14:39:05;7.70;;;7.10;;
10088;SDS011;51898;49.864;8.550;2022-08-19T14:42:07;7.80;;;7.30;;
10088;SDS011;51898;49.864;8.550;2022-08-19T14:45:11;8.53;;;7.93;;
10088;SDS011;51898;49.864;8.550;2022-08-19T14:48:13;9.03;;;8.33;;
10088;SDS011;51898;49.864;8.550;2022-08-19T14:51:21;8.23;;;7.53;;
10088;SDS011;51898;49.864;8.550;2022-08-19T14:54:24;8.77;;;8.07;;
10088;SDS011;51898;49.864;8.550;2022-08-19T14:57:30;9.27;;;8.47;;
10088;SDS011;51898;49.864;8.550;2022-08-19T15:00:32;9.23;;;8.40;;
10088;SDS011;51898;49.864;8.550;2022-08-19T15:03:37;8.77;;;8.07;;
10088;SDS011;51898;49.864;8.550;2022-08-19T15:06:41;8.70;;;7.83;;
10088;SDS011;51898;49.864;8.550;2022-08-19T15:09:43;9.20;;;8.50;;
10088;SDS011;51898;49.864;8.550;2022-08-19T15:12:44;9.80;;;9.00;;
10088;SDS011;51898;49.864;8.550;2022-08-19T15:15:51;10.43;;;9.53;;
10088;SDS011;51898;49.864;8.550;2022-08-19T15:18:55;9.63;;;8.93;;
10088;SDS011;51898;49.864;8.550;2022-08-19T15:21:59;9.00;;;8.30;;
10088;SDS011;51898;49.864;8.550;2022-08-19T15:25:02;9.70;;;8.83;;
10088;SDS011;51898;49.864;8.550;2022-08-19T15:28:04;9.07;;;8.27;;
10088;SDS011;51898;49.864;8.550;2022-08-19T15:31:07;8.07;;;7.47;;
10088;SDS011;51898;49.864;8.550;2022-08-19T15:34:19;9.23;;;8.33;;
10088;SDS011;51898;49.864;8.550;2022-08-19T15:37:21;8.30;;;7.77;;
10088;SDS011;51898;49.864;8.550;2022-08-19T15:40:24;8.07;;;7.47;;
10088;SDS011;51898;49.864;8.550;2022-08-19T15:43:27;8.98;;;8.38;;
10088;SDS011;51898;49.864;8.550;2022-08-19T15:46:31;8.35;;;7.75;;
10088;SDS011;51898;49.864;8.550;2022-08-19T15:49:34;9.07;;;8.30;;
10088;SDS011;51898;49.864;8.550;2022-08-19T15:52:36;9.63;;;8.93;;
10088;SDS011;51898;49.864;8.550;2022-08-19T15:55:49;9.70;;;8.98;;
10088;SDS011;51898;49.864;8.550;2022-08-19T15:58:51;8.90;;;8.20;;
10088;SDS011;51898;49.864;8.550;2022-08-19T16:02:11;9.38;;;8.60;;
10088;SDS011;51898;49.864;8.550;2022-08-19T16:05:32;8.85;;;8.27;;
10088;SDS011;51898;49.864;8.550;2022-08-19T16:08:57;8.52;;;8.02;;
10088;SDS011;51898;49.864;8.550;2022-08-19T16:12:02;9.27;;;8.48;;
10088;SDS011;51898;49.864;8.550;2022-08-19T16:15:07;8.38;;;7.78;;
10088;SDS011;51898;49.864;8.550;2022-08-19T16:18:13;8.82;;;8.10;;
10088;SDS011;51898;49.864;8.550;2022-08-19T16:21:15;9.70;;;8.43;;
10088;SDS011;51898;49.864;8.550;2022-08-19T16:24:18;10.20;;;8.23;;
10088;SDS011;51898;49.864;8.550;2022-08-19T16:27:21;8.40;;;7.60;;
10088;SDS011;51898;49.864;8.550;2022-08-19T16:30:23;9.07;;;8.27;;
10088;SDS011;51898;49.864;8.550;2022-08-19T16:33:25;8.93;;;8.32;;
10088;SDS011;51898;49.864;8.550;2022-08-19T16:36:26;8.00;;;7.47;;
10088;SDS011;51898;49.864;8.550;2022-08-19T16:39:28;9.10;;;8.45;;
10088;SDS011;51898;49.864;8.550;2022-08-19T16:42:30;9.10;;;8.40;;
10088;SDS011;51898;49.864;8.550;2022-08-19T16:45:32;8.70;;;7.97;;
10088;SDS011;51898;49.864;8.550;2022-08-19T16:48:34;9.68;;;8.52;;
10088;SDS011;51898;49.864;8.550;2022-08-19T16:51:40;9.55;;;8.85;;
10088;SDS011;51898;49.864;8.550;2022-08-19T16:54:44;8.93;;;8.13;;
10088;SDS011;51898;49.864;8.550;2022-08-19T16:57:46;9.52;;;8.82;;
10088;SDS011;51898;49.864;8.550;2022-08-19T17:00:48;9.95;;;9.15;;
10088;SDS011;51898;49.864;8.550;2022-08-19T17:03:50;9.20;;;8.43;;
10088;SDS011;51898;49.864;8.550;2022-08-19T17:06:53;9.88;;;9.02;;
10088;SDS011;51898;49.864;8.550;2022-08-19T17:09:54;10.02;;;9.13;;
10088;SDS011;51898;49.864;8.550;2022-08-19T17:12:57;10.10;;;9.30;;
10088;SDS011;51898;49.864;8.550;2022-08-19T17:15:58;10.02;;;9.00;;
10088;SDS011;51898;49.864;8.550;2022-08-19T17:19:01;9.85;;;9.15;;
10088;SDS011;51898;49.864;8.550;2022-08-19T17:22:05;10.47;;;9.57;;
10088;SDS011;51898;49.864;8.550;2022-08-19T17:25:07;10.00;;;9.20;;
10088;SDS011;51898;49.864;8.550;2022-08-19T17:28:11;10.45;;;9.55;;
10088;SDS011;51898;49.864;8.550;2022-08-19T17:31:16;9.90;;;9.20;;
10088;SDS011;51898;49.864;8.550;2022-08-19T17:34:19;10.77;;;9.70;;
10088;SDS011;51898;49.864;8.550;2022-08-19T17:37:21;10.88;;;10.07;;
10088;SDS011;51898;49.864;8.550;2022-08-19T17:40:23;10.73;;;9.65;;
10088;SDS011;51898;49.864;8.550;2022-08-19T17:43:29;10.45;;;9.55;;
10088;SDS011;51898;49.864;8.550;2022-08-19T17:46:42;10.53;;;9.60;;
10088;SDS011;51898;49.864;8.550;2022-08-19T17:49:46;11.05;;;10.05;;
10088;SDS011;51898;49.864;8.550;2022-08-19T17:52:48;10.30;;;9.40;;
10088;SDS011;51898;49.864;8.550;2022-08-19T17:55:52;9.20;;;8.50;;
10088;SDS011;51898;49.864;8.550;2022-08-19T17:58:54;9.53;;;8.73;;
10088;SDS011;51898;49.864;8.550;2022-08-19T18:02:02;8.63;;;8.03;;
10088;SDS011;51898;49.864;8.550;2022-08-19T18:05:05;9.30;;;8.50;;
10088;SDS011;51898;49.864;8.550;2022-08-19T18:08:07;11.30;;;8.90;;
10088;SDS011;51898;49.864;8.550;2022-08-19T18:11:09;9.27;;;8.57;;
10088;SDS011;51898;49.864;8.550;2022-08-19T18:14:11;8.87;;;8.27;;
10088;SDS011;51898;49.864;8.550;2022-08-19T18:17:14;8.97;;;8.17;;
10088;SDS011;51898;49.864;8.550;2022-08-19T18:20:19;8.40;;;7.80;;
10088;SDS011;51898;49.864;8.550;2022-08-19T18:23:24;8.90;;;8.00;;